createdAt,value
2022-08-02T00:00:45.743Z,1.20
2022-08-02T00:03:13.794Z,1.60
2022-08-02T00:05:41.875Z,1.67
2022-08-02T00:08:21.093Z,1.60
2022-08-02T00:10:49.427Z,1.45
2022-08-02T00:13:18.895Z,1.77
2022-08-02T00:15:47.128Z,2.33
2022-08-02T00:18:15.097Z,2.30
2022-08-02T00:20:43.454Z,2.30
2022-08-02T00:23:11.524Z,2.05
2022-08-02T00:25:54.736Z,2.10
2022-08-02T00:28:27.919Z,2.90
2022-08-02T00:30:57.594Z,2.25
2022-08-02T00:34:26.780Z,2.22
2022-08-02T00:36:13.950Z,2.25
2022-08-02T00:38:42.311Z,1.92
2022-08-02T00:41:16.219Z,1.60
2022-08-02T00:43:47.116Z,2.25
2022-08-02T00:46:16.133Z,2.03
2022-08-02T00:48:44.552Z,1.80
2022-08-02T00:51:13.762Z,1.77
2022-08-02T00:53:41.974Z,1.40
2022-08-02T00:56:10.344Z,1.40
2022-08-02T00:58:39.119Z,1.85
2022-08-02T01:01:08.530Z,1.80
2022-08-02T01:03:36.694Z,1.65
2022-08-02T01:06:12.190Z,1.65
2022-08-02T01:08:40.728Z,1.50
2022-08-02T01:11:09.194Z,1.60
2022-08-02T01:13:37.592Z,2.38
2022-08-02T01:16:16.999Z,1.67
2022-08-02T01:18:49.244Z,1.95
2022-08-02T01:21:39.392Z,1.67
2022-08-02T01:24:25.668Z,1.60
2022-08-02T01:27:01.780Z,1.50
2022-08-02T01:32:05.694Z,2.33
2022-08-02T01:34:38.352Z,2.08
2022-08-02T01:37:15.347Z,2.00
2022-08-02T01:39:45.999Z,1.52
2022-08-02T01:42:15.897Z,1.50
2022-08-02T01:44:47.861Z,1.80
2022-08-02T01:47:20.497Z,1.80
2022-08-02T01:49:51.841Z,2.17
2022-08-02T01:52:24.811Z,2.25
2022-08-02T01:54:59.330Z,1.80
2022-08-02T01:57:28.903Z,1.80
2022-08-02T02:00:01.604Z,1.65
2022-08-02T02:02:33.154Z,1.77
2022-08-02T02:05:04.263Z,1.75
2022-08-02T02:07:34.796Z,1.73
2022-08-02T02:10:05.474Z,1.80
2022-08-02T02:12:38.187Z,1.92
2022-08-02T02:15:10.861Z,1.45
2022-08-02T02:18:10.677Z,1.80
2022-08-02T02:20:31.345Z,1.52
2022-08-02T02:23:00.430Z,1.70
2022-08-02T02:25:36.343Z,1.58
2022-08-02T02:28:12.209Z,1.90
2022-08-02T02:30:47.647Z,1.88
2022-08-02T02:33:19.204Z,1.80
2022-08-02T02:35:50.863Z,1.60
2022-08-02T02:38:21.634Z,1.75
2022-08-02T02:40:50.994Z,1.90
2022-08-02T02:43:19.425Z,1.58
2022-08-02T02:45:49.007Z,1.80
2022-08-02T02:48:18.504Z,2.30
2022-08-02T02:50:47.345Z,2.00
2022-08-02T02:53:19.369Z,1.95
2022-08-02T02:56:01.988Z,1.65
2022-08-02T02:58:31.669Z,2.05
2022-08-02T03:01:19.195Z,1.80
2022-08-02T03:03:48.404Z,1.95
2022-08-02T03:06:16.556Z,2.20
2022-08-02T03:08:44.781Z,2.13
2022-08-02T03:11:16.300Z,2.00
2022-08-02T03:13:45.076Z,1.88
2022-08-02T03:16:15.225Z,1.73
2022-08-02T03:18:44.811Z,2.30
2022-08-02T03:21:14.315Z,1.80
2022-08-02T03:23:44.123Z,1.80
2022-08-02T03:26:12.417Z,2.05
2022-08-02T03:28:41.159Z,2.03
2022-08-02T03:31:09.325Z,2.20
2022-08-02T03:33:38.938Z,2.22
2022-08-02T03:36:10.152Z,2.38
2022-08-02T03:38:39.615Z,2.40
2022-08-02T03:41:08.718Z,2.38
2022-08-02T03:43:38.102Z,2.20
2022-08-02T03:46:08.823Z,2.03
2022-08-02T03:48:39.690Z,2.33
2022-08-02T03:51:08.791Z,2.75
2022-08-02T03:53:37.548Z,2.53
2022-08-02T03:56:07.452Z,2.08
2022-08-02T03:58:35.632Z,2.17
2022-08-02T04:01:04.076Z,2.63
2022-08-02T04:03:32.210Z,2.40
2022-08-02T04:06:04.479Z,2.20
2022-08-02T04:08:37.677Z,2.65
2022-08-02T04:11:24.657Z,2.85
2022-08-02T04:13:56.685Z,3.15
2022-08-02T04:16:30.536Z,2.80
2022-08-02T04:19:02.335Z,2.40
2022-08-02T04:21:48.773Z,2.50
2022-08-02T04:24:24.571Z,2.45
2022-08-02T04:26:57.759Z,2.67
2022-08-02T04:29:33.043Z,2.30
2022-08-02T04:32:02.207Z,2.65
2022-08-02T04:34:30.657Z,2.47
2022-08-02T04:37:01.036Z,2.70
2022-08-02T04:39:29.333Z,2.65
2022-08-02T04:41:57.903Z,2.63
2022-08-02T04:44:26.554Z,2.53
2022-08-02T04:46:55.936Z,2.35
2022-08-02T04:49:24.257Z,2.25
2022-08-02T04:51:52.504Z,2.40
2022-08-02T04:54:22.055Z,2.40
2022-08-02T04:56:50.142Z,2.50
2022-08-02T04:59:18.467Z,2.53
2022-08-02T05:01:46.520Z,2.50
2022-08-02T05:04:14.629Z,2.90
2022-08-02T05:06:42.785Z,2.65
2022-08-02T05:09:10.890Z,3.20
2022-08-02T05:11:40.216Z,2.60
2022-08-02T05:14:08.786Z,2.30
2022-08-02T05:16:36.944Z,2.60
2022-08-02T05:19:04.987Z,2.60
2022-08-02T05:21:33.081Z,2.45
2022-08-02T05:24:01.358Z,2.40
2022-08-02T05:26:29.481Z,2.55
2022-08-02T05:28:59.367Z,2.42
2022-08-02T05:31:27.494Z,2.63
2022-08-02T05:33:55.684Z,2.70
2022-08-02T05:36:23.834Z,2.58
2022-08-02T05:38:53.177Z,2.78
2022-08-02T05:41:28.685Z,2.80
2022-08-02T05:43:58.109Z,2.88
2022-08-02T05:46:26.282Z,2.88
2022-08-02T05:48:54.485Z,2.70
2022-08-02T05:51:27.985Z,2.83
2022-08-02T05:54:04.289Z,2.70
2022-08-02T05:56:36.439Z,2.90
2022-08-02T05:59:11.579Z,2.90
2022-08-02T06:01:42.404Z,2.20
2022-08-02T06:04:12.419Z,2.45
2022-08-02T06:06:45.978Z,2.97
2022-08-02T06:09:21.002Z,2.50
2022-08-02T06:12:11.108Z,2.70
2022-08-02T06:14:42.702Z,2.30
2022-08-02T06:17:11.605Z,1.45
2022-08-02T06:19:51.603Z,1.80
2022-08-02T06:22:32.747Z,1.85
2022-08-02T06:25:05.716Z,2.10
2022-08-02T06:27:35.192Z,1.90
2022-08-02T06:30:08.182Z,2.00
2022-08-02T06:32:36.750Z,2.35
2022-08-02T06:35:06.492Z,1.90
2022-08-02T06:37:39.586Z,1.80
2022-08-02T06:40:15.727Z,2.17
2022-08-02T06:42:50.628Z,1.50
2022-08-02T06:45:20.197Z,1.30
2022-08-02T06:47:48.358Z,1.85
2022-08-02T06:50:16.682Z,1.42
2022-08-02T06:52:44.646Z,1.60
2022-08-02T06:55:12.735Z,2.15
2022-08-02T06:57:41.001Z,2.13
2022-08-02T07:00:10.386Z,2.10
2022-08-02T07:02:40.634Z,1.83
2022-08-02T07:05:10.351Z,1.42
2022-08-02T07:07:38.747Z,1.58
2022-08-02T07:10:07.522Z,1.58
2022-08-02T07:12:36.253Z,1.50
2022-08-02T07:15:07.244Z,1.45
2022-08-02T07:17:35.912Z,1.58
2022-08-02T07:20:06.781Z,1.60
2022-08-02T07:22:34.941Z,1.38
2022-08-02T07:25:03.163Z,1.80
2022-08-02T07:27:31.350Z,1.58
2022-08-02T07:29:59.414Z,1.80
2022-08-02T07:32:30.506Z,1.52
2022-08-02T07:34:59.395Z,1.63
2022-08-02T07:37:53.689Z,1.88
2022-08-02T07:40:21.154Z,1.58
2022-08-02T07:42:52.408Z,1.88
2022-08-02T07:45:21.922Z,1.63
2022-08-02T07:47:51.456Z,1.23
2022-08-02T07:50:21.014Z,1.42
2022-08-02T07:52:57.626Z,1.40
2022-08-02T07:55:39.351Z,1.95
2022-08-02T07:58:12.122Z,1.67
2022-08-02T08:00:41.955Z,2.00
2022-08-02T08:03:09.986Z,1.67
2022-08-02T08:05:38.196Z,1.50
2022-08-02T08:08:09.416Z,1.67
2022-08-02T08:10:41.370Z,1.42
2022-08-02T08:13:09.497Z,1.50
2022-08-02T08:15:37.687Z,1.63
2022-08-02T08:18:06.529Z,1.50
2022-08-02T08:20:34.783Z,2.00
2022-08-02T08:23:03.425Z,1.30
2022-08-02T08:25:32.905Z,1.45
2022-08-02T08:28:08.170Z,1.50
2022-08-02T08:30:36.327Z,1.58
2022-08-02T08:33:04.518Z,1.38
2022-08-02T08:35:32.911Z,1.85
2022-08-02T08:38:05.462Z,1.52
2022-08-02T08:40:37.740Z,1.27
2022-08-02T08:43:06.366Z,1.73
2022-08-02T08:45:34.490Z,1.30
2022-08-02T08:48:08.811Z,1.63
2022-08-02T08:50:38.764Z,1.48
2022-08-02T08:53:12.441Z,1.58
2022-08-02T08:55:44.772Z,1.60
2022-08-02T08:58:14.182Z,1.30
2022-08-02T09:00:42.790Z,1.92
2022-08-02T09:03:11.368Z,1.60
2022-08-02T09:05:41.830Z,1.65
2022-08-02T09:08:14.856Z,1.58
2022-08-02T09:10:47.622Z,1.55
2022-08-02T09:13:31.370Z,1.52
2022-08-02T09:16:12.449Z,1.40
2022-08-02T09:18:46.424Z,1.98
2022-08-02T09:21:16.754Z,1.50
2022-08-02T09:23:46.812Z,1.45
2022-08-02T09:26:18.774Z,1.40
2022-08-02T09:28:50.029Z,1.33
2022-08-02T09:31:19.867Z,1.35
2022-08-02T09:33:54.319Z,1.30
2022-08-02T09:36:23.367Z,1.40
2022-08-02T09:38:58.230Z,0.93
2022-08-02T09:41:30.137Z,1.40
2022-08-02T09:44:04.326Z,1.30
2022-08-02T09:46:38.315Z,1.30
2022-08-02T09:49:09.666Z,1.20
2022-08-02T09:51:40.359Z,0.95
2022-08-02T09:54:10.181Z,1.20
2022-08-02T09:56:45.546Z,1.25
2022-08-02T10:01:50.567Z,1.20
2022-08-02T10:04:22.604Z,1.00
2022-08-02T10:06:51.772Z,0.80
2022-08-02T10:09:20.447Z,0.85
2022-08-02T10:11:50.303Z,1.15
2022-08-02T10:14:20.513Z,1.30
2022-08-02T10:16:48.592Z,0.93
2022-08-02T10:19:17.648Z,1.10
2022-08-02T10:22:07.393Z,1.33
2022-08-02T10:24:39.549Z,1.08
2022-08-02T10:27:20.343Z,1.20
2022-08-02T10:29:54.320Z,0.82
2022-08-02T10:32:28.098Z,1.13
2022-08-02T10:35:18.202Z,1.00
2022-08-02T10:37:50.807Z,1.10
2022-08-02T10:40:26.873Z,0.73
2022-08-02T10:42:59.554Z,1.20
2022-08-02T10:45:29.880Z,1.05
2022-08-02T10:48:03.687Z,1.00
2022-08-02T10:50:56.035Z,0.90
2022-08-02T10:53:34.248Z,1.00
2022-08-02T10:56:05.070Z,0.98
2022-08-02T10:58:35.683Z,0.85
2022-08-02T11:01:07.106Z,1.02
2022-08-02T11:03:41.306Z,0.80
2022-08-02T11:06:25.160Z,1.02
2022-08-02T11:09:31.440Z,1.05
2022-08-02T11:12:03.185Z,0.98
2022-08-02T11:14:33.721Z,1.00
2022-08-02T11:17:13.815Z,0.98
2022-08-02T11:20:15.952Z,1.00
2022-08-02T11:22:45.969Z,1.00
2022-08-02T11:26:02.772Z,0.90
2022-08-02T11:28:26.113Z,0.98
2022-08-02T11:31:03.085Z,1.20
2022-08-02T11:33:33.511Z,1.02
2022-08-02T11:36:03.602Z,1.02
2022-08-02T11:38:31.715Z,1.00
2022-08-02T11:41:00.159Z,1.10
2022-08-02T11:43:34.930Z,0.90
2022-08-02T11:46:05.610Z,0.75
2022-08-02T11:48:35.159Z,0.82
2022-08-02T11:51:10.749Z,0.85
2022-08-02T11:53:48.789Z,1.48
2022-08-02T11:56:21.780Z,0.93
2022-08-02T11:59:04.995Z,1.30
2022-08-02T12:01:45.032Z,1.02
2022-08-02T12:04:22.679Z,1.00
2022-08-02T12:07:01.947Z,0.93
2022-08-02T12:09:32.963Z,0.70
2022-08-02T12:12:02.186Z,1.08
2022-08-02T12:14:32.838Z,0.82
2022-08-02T12:17:19.715Z,0.80
2022-08-02T12:19:49.221Z,0.90
2022-08-02T12:22:19.524Z,0.80
2022-08-02T12:24:54.633Z,1.02
2022-08-02T12:27:34.579Z,1.40
2022-08-02T12:30:08.645Z,0.90
2022-08-02T12:32:38.635Z,1.00
2022-08-02T12:35:10.300Z,0.98
2022-08-02T12:37:41.567Z,0.90
2022-08-02T12:40:25.399Z,1.00
2022-08-02T12:42:57.148Z,1.00
2022-08-02T12:45:26.661Z,0.77
2022-08-02T12:48:06.580Z,0.90
2022-08-02T12:50:37.586Z,0.80
2022-08-02T12:53:09.277Z,0.80
2022-08-02T12:56:02.024Z,0.73
2022-08-02T12:58:29.586Z,0.98
2022-08-02T13:01:00.128Z,1.10
2022-08-02T13:04:10.525Z,0.80
2022-08-02T13:09:16.829Z,0.90
2022-08-02T13:11:45.586Z,0.77
2022-08-02T13:14:15.132Z,0.93
2022-08-02T13:16:45.156Z,0.88
2022-08-02T13:19:16.227Z,0.80
2022-08-02T13:22:01.091Z,0.90
2022-08-02T13:24:41.268Z,0.82
2022-08-02T13:27:18.113Z,0.95
2022-08-02T13:29:46.536Z,0.75
2022-08-02T13:32:15.387Z,0.90
2022-08-02T13:34:45.287Z,0.85
2022-08-02T13:37:13.594Z,1.02
2022-08-02T13:39:41.735Z,0.90
2022-08-02T13:42:16.930Z,0.73
2022-08-02T13:44:45.350Z,0.80
2022-08-02T13:47:13.588Z,1.10
2022-08-02T13:49:49.696Z,0.85
2022-08-02T13:52:21.237Z,0.75
2022-08-02T13:54:49.356Z,1.02
2022-08-02T13:57:17.571Z,0.70
2022-08-02T13:59:58.379Z,0.57
2022-08-02T14:02:28.394Z,0.80
2022-08-02T14:04:57.082Z,0.88
2022-08-02T14:07:26.500Z,0.60
2022-08-02T14:09:54.670Z,0.50
2022-08-02T14:12:22.740Z,0.50
2022-08-02T14:14:51.537Z,0.50
2022-08-02T14:17:19.757Z,0.73
2022-08-02T14:19:48.064Z,0.43
2022-08-02T14:22:16.399Z,0.45
2022-08-02T14:24:45.992Z,0.30
2022-08-02T14:27:14.104Z,0.50
2022-08-02T14:29:42.261Z,0.30
2022-08-02T14:32:10.928Z,0.50
2022-08-02T14:34:39.528Z,0.50
2022-08-02T14:37:07.763Z,0.60
2022-08-02T14:39:43.664Z,0.55
2022-08-02T14:42:25.301Z,0.75
2022-08-02T14:44:53.553Z,0.60
2022-08-02T14:47:21.658Z,0.80
2022-08-02T14:49:50.647Z,0.50
2022-08-02T14:52:19.959Z,0.43
2022-08-02T14:54:48.161Z,0.60
2022-08-02T14:57:16.584Z,0.40
2022-08-02T14:59:47.281Z,0.50
2022-08-02T15:02:16.090Z,0.55
2022-08-02T15:04:44.464Z,0.55
2022-08-02T15:07:14.152Z,0.50
2022-08-02T15:09:42.598Z,0.32
2022-08-02T15:12:11.984Z,0.60
2022-08-02T15:14:40.612Z,0.35
2022-08-02T15:17:10.854Z,0.68
2022-08-02T15:19:58.840Z,0.40
2022-08-02T15:22:28.946Z,0.52
2022-08-02T15:24:57.157Z,0.60
2022-08-02T15:27:25.205Z,0.68
2022-08-02T15:29:59.992Z,0.47
2022-08-02T15:32:29.848Z,0.50
2022-08-02T15:34:58.115Z,0.50
2022-08-02T15:37:31.155Z,0.50
2022-08-02T15:39:59.959Z,0.50
2022-08-02T15:42:30.553Z,0.60
2022-08-02T15:44:59.553Z,0.70
2022-08-02T15:47:29.142Z,0.50
2022-08-02T15:49:58.462Z,0.47
2022-08-02T15:52:26.890Z,0.50
2022-08-02T15:54:55.003Z,0.50
2022-08-02T15:57:23.546Z,0.60
2022-08-02T15:59:53.030Z,0.60
2022-08-02T16:02:21.343Z,0.45
2022-08-02T16:04:50.921Z,0.50
2022-08-02T16:07:19.056Z,0.65
2022-08-02T16:09:47.262Z,0.40
2022-08-02T16:12:15.916Z,0.50
2022-08-02T16:14:45.630Z,0.52
2022-08-02T16:17:13.806Z,0.73
2022-08-02T16:20:03.324Z,0.40
2022-08-02T16:22:31.493Z,0.50
2022-08-02T16:24:59.489Z,0.60
2022-08-02T16:27:27.772Z,0.40
2022-08-02T16:29:56.127Z,0.55
2022-08-02T16:32:24.220Z,0.50
2022-08-02T16:35:07.661Z,0.30
2022-08-02T16:37:52.028Z,0.70
2022-08-02T16:40:21.346Z,0.40
2022-08-02T16:42:50.850Z,0.47
2022-08-02T16:45:21.136Z,0.40
2022-08-02T16:47:56.080Z,0.50
2022-08-02T16:50:28.652Z,0.40
2022-08-02T16:52:59.219Z,0.40
2022-08-02T16:55:29.269Z,0.60
2022-08-02T16:58:00.469Z,0.50
2022-08-02T17:00:29.494Z,0.40
2022-08-02T17:02:59.463Z,0.45
2022-08-02T17:05:38.207Z,0.40
2022-08-02T17:08:19.675Z,0.50
2022-08-02T17:10:47.917Z,0.60
2022-08-02T17:13:16.059Z,0.60
2022-08-02T17:16:16.703Z,0.50
2022-08-02T17:18:34.273Z,0.80
2022-08-02T17:21:10.839Z,0.60
2022-08-02T17:24:04.398Z,0.60
2022-08-02T17:26:30.059Z,0.50
2022-08-02T17:29:16.447Z,0.60
2022-08-02T17:32:05.178Z,0.60
2022-08-02T17:34:35.184Z,0.70
2022-08-02T17:37:05.832Z,1.00
2022-08-02T17:39:44.316Z,0.80
2022-08-02T17:42:23.190Z,0.98
2022-08-02T17:45:16.700Z,0.80
2022-08-02T17:48:04.023Z,0.52
2022-08-02T17:50:33.520Z,1.00
2022-08-02T17:53:02.051Z,0.60
2022-08-02T17:55:33.190Z,0.52
2022-08-02T17:58:01.326Z,0.90
2022-08-02T18:00:34.090Z,0.90
2022-08-02T18:03:05.675Z,0.80
2022-08-02T18:08:25.004Z,0.73
2022-08-02T18:10:55.717Z,1.00
2022-08-02T18:13:24.575Z,0.70
2022-08-02T18:15:57.155Z,0.88
2022-08-02T18:18:29.300Z,0.95
2022-08-02T18:21:15.494Z,0.90
2022-08-02T18:23:48.663Z,0.70
2022-08-02T18:26:20.898Z,0.80
2022-08-02T18:29:08.664Z,0.80
2022-08-02T18:31:39.526Z,1.00
2022-08-02T18:34:08.855Z,0.75
2022-08-02T18:36:37.090Z,1.10
2022-08-02T18:39:16.047Z,1.00
2022-08-02T18:41:47.879Z,0.90
2022-08-02T18:44:16.757Z,0.93
2022-08-02T18:46:46.909Z,0.93
2022-08-02T18:49:17.599Z,1.02
2022-08-02T18:51:46.058Z,0.85
2022-08-02T18:54:14.769Z,0.82
2022-08-02T18:56:47.378Z,1.20
2022-08-02T18:59:18.060Z,1.02
2022-08-02T19:01:50.680Z,1.30
2022-08-02T19:04:26.873Z,1.23
2022-08-02T19:06:56.645Z,1.08
2022-08-02T19:09:32.043Z,1.00
2022-08-02T19:12:00.058Z,1.20
2022-08-02T19:14:29.551Z,1.40
2022-08-02T19:17:11.643Z,1.17
2022-08-02T19:19:48.565Z,1.45
2022-08-02T19:22:20.409Z,1.15
2022-08-02T19:24:51.749Z,1.15
2022-08-02T19:27:26.037Z,1.48
2022-08-02T19:30:03.096Z,1.13
2022-08-02T19:32:41.447Z,1.50
2022-08-02T19:35:29.852Z,1.27
2022-08-02T19:38:07.897Z,1.33
2022-08-02T19:40:38.566Z,1.10
2022-08-02T19:44:25.146Z,1.20
2022-08-02T19:45:56.757Z,1.10
2022-08-02T19:48:27.206Z,1.40
2022-08-02T19:51:00.880Z,1.23
2022-08-02T19:53:48.050Z,1.10
2022-08-02T19:56:22.020Z,1.33
2022-08-02T19:58:55.062Z,1.20
2022-08-02T20:01:28.422Z,1.60
2022-08-02T20:04:06.660Z,1.40
2022-08-02T20:06:34.665Z,1.10
2022-08-02T20:09:04.156Z,1.52
2022-08-02T20:11:34.442Z,1.33
2022-08-02T20:14:04.618Z,1.23
2022-08-02T20:16:35.506Z,1.40
2022-08-02T20:19:04.177Z,1.60
2022-08-02T20:21:36.245Z,1.75
2022-08-02T20:24:07.366Z,1.60
2022-08-02T20:26:35.797Z,1.70
2022-08-02T20:29:06.492Z,1.70
2022-08-02T20:31:37.868Z,2.25
2022-08-02T20:34:07.273Z,1.73
2022-08-02T20:36:35.504Z,1.70
2022-08-02T20:39:03.754Z,1.88
2022-08-02T20:41:37.070Z,1.98
2022-08-02T20:44:16.134Z,1.70
2022-08-02T20:47:00.727Z,1.80
2022-08-02T20:49:41.428Z,1.95
2022-08-02T20:52:23.164Z,1.67
2022-08-02T20:54:52.789Z,1.80
2022-08-02T20:57:36.215Z,2.17
2022-08-02T21:00:11.641Z,1.92
2022-08-02T21:02:42.404Z,1.80
2022-08-02T21:05:17.474Z,1.90
2022-08-02T21:07:47.607Z,2.13
2022-08-02T21:10:16.197Z,2.10
2022-08-02T21:12:45.398Z,2.17
2022-08-02T21:15:13.733Z,2.00
2022-08-02T21:17:53.218Z,2.08
2022-08-02T21:20:29.311Z,1.70
2022-08-02T21:22:58.235Z,2.33
2022-08-02T21:25:51.133Z,1.88
2022-08-02T21:28:17.703Z,2.10
2022-08-02T21:30:46.642Z,1.55
2022-08-02T21:33:18.178Z,1.95
2022-08-02T21:35:52.261Z,1.88
2022-08-02T21:38:35.565Z,2.10
2022-08-02T21:41:06.086Z,1.80
2022-08-02T21:43:40.540Z,2.13
2022-08-02T21:46:14.601Z,2.00
2022-08-02T21:48:44.560Z,2.25
2022-08-02T21:51:15.728Z,2.20
2022-08-02T21:54:16.847Z,2.33
2022-08-02T21:56:32.631Z,1.90
2022-08-02T21:59:13.554Z,2.05
2022-08-02T22:01:52.773Z,2.10
2022-08-02T22:04:23.407Z,2.25
2022-08-02T22:06:51.825Z,2.20
2022-08-02T22:09:43.228Z,1.83
2022-08-02T22:12:10.068Z,2.72
2022-08-02T22:14:40.938Z,2.42
2022-08-02T22:17:13.774Z,2.10
2022-08-02T22:19:53.804Z,2.03
2022-08-02T22:22:28.255Z,1.70
2022-08-02T22:24:57.654Z,2.50
2022-08-02T22:28:36.139Z,2.42
2022-08-02T22:30:16.857Z,1.98
2022-08-02T22:33:15.392Z,2.28
2022-08-02T22:35:45.388Z,2.17
2022-08-02T22:38:18.373Z,2.08
2022-08-02T22:40:49.312Z,2.10
2022-08-02T22:43:22.966Z,1.95
2022-08-02T22:45:51.598Z,1.90
2022-08-02T22:48:20.464Z,1.63
2022-08-02T22:50:50.229Z,2.10
2022-08-02T22:53:24.716Z,2.40
2022-08-02T22:56:04.617Z,1.95
2022-08-02T22:58:32.855Z,1.83
2022-08-02T22:58:43.167Z,0.70
2022-08-02T23:01:01.126Z,2.17
2022-08-02T23:03:29.618Z,2.30
2022-08-02T23:05:59.231Z,1.90
2022-08-02T23:08:27.351Z,2.15
2022-08-02T23:10:55.327Z,2.20
2022-08-02T23:13:28.173Z,1.80
2022-08-02T23:16:14.377Z,2.40
2022-08-02T23:19:00.352Z,2.22
2022-08-02T23:21:45.730Z,2.38
2022-08-02T23:24:22.646Z,2.47
2022-08-02T23:26:50.801Z,2.28
2022-08-02T23:29:18.880Z,2.15
2022-08-02T23:31:47.072Z,2.30
2022-08-02T23:34:15.363Z,2.22
2022-08-02T23:36:44.841Z,3.10
2022-08-02T23:39:13.062Z,2.45
2022-08-02T23:41:41.439Z,2.25
2022-08-02T23:44:14.489Z,2.75
2022-08-02T23:46:43.139Z,2.50
2022-08-02T23:49:13.486Z,3.20
2022-08-02T23:51:41.869Z,2.53
2022-08-02T23:54:11.895Z,2.65
2022-08-02T23:56:41.032Z,2.70
2022-08-02T23:59:09.813Z,2.28
